Time;durP1;ratioP1;P1;durP2;ratioP2;P2;SDS_P1;SDS_P2;PMS_P1;PMS_P2;Temp;Humidity;BMP_temperature;BMP_pressure;BME280_temperature;BME280_humidity;BME280_pressure;Samples;Min_cycle;Max_cycle;Signal;HPM_P1;HPM_P2
2022/08/24 00:02:21;;;;;;;7.50;1.95;;;19.10;99.90;;;;;;4979089;28;20038;-62
2022/08/24 00:04:47;;;;;;;5.75;1.60;;;19.10;99.90;;;;;;4987896;28;20027;-63
2022/08/24 00:07:14;;;;;;;6.00;1.50;;;19.00;99.90;;;;;;4976810;28;20081;-64
2022/08/24 00:09:40;;;;;;;4.15;2.00;;;19.00;99.90;;;;;;4971209;28;20452;-63
2022/08/24 00:12:07;;;;;;;6.55;1.65;;;18.90;99.90;;;;;;4976606;28;20030;-63
2022/08/24 00:14:33;;;;;;;6.53;2.03;;;18.90;99.90;;;;;;4975080;28;20031;-63
2022/08/24 00:16:59;;;;;;;5.28;1.88;;;18.80;99.90;;;;;;4973294;28;20367;-63
2022/08/24 00:19:26;;;;;;;2.45;1.65;;;18.80;99.90;;;;;;4959226;28;20035;-63
2022/08/24 00:21:52;;;;;;;5.30;1.83;;;18.80;99.90;;;;;;4952594;28;20089;-64
2022/08/24 00:24:18;;;;;;;10.27;2.30;;;18.70;99.90;;;;;;4953074;28;20019;-64
2022/08/24 00:26:45;;;;;;;8.55;2.00;;;18.70;99.90;;;;;;4952520;28;20030;-62
2022/08/24 00:29:12;;;;;;;4.60;2.33;;;18.60;99.90;;;;;;4948644;28;20047;-63
2022/08/24 00:31:38;;;;;;;3.97;2.05;;;18.60;99.90;;;;;;4954886;28;20097;-63
2022/08/24 00:34:04;;;;;;;7.90;2.58;;;18.50;99.90;;;;;;4953194;28;20055;-63
2022/08/24 00:36:30;;;;;;;11.95;2.70;;;18.50;99.90;;;;;;4954732;28;20023;-64
2022/08/24 00:38:55;;;;;;;10.30;2.67;;;18.50;99.90;;;;;;4952113;28;20443;-64
2022/08/24 00:41:21;;;;;;;7.90;2.40;;;18.50;99.90;;;;;;4952597;28;20035;-64
2022/08/24 00:44:00;;;;;;;7.78;2.70;;;18.50;99.90;;;;;;4948824;28;20360;-64
2022/08/24 00:46:52;;;;;;;8.43;2.88;;;18.50;99.90;;;;;;4953915;28;20035;-64
2022/08/24 00:49:32;;;;;;;5.60;2.47;;;18.50;99.90;;;;;;4956597;28;20070;-64
2022/08/24 00:52:14;;;;;;;9.80;2.80;;;18.50;99.90;;;;;;4953359;28;20277;-64
2022/08/24 00:54:44;;;;;;;11.38;3.13;;;18.60;99.90;;;;;;4953355;28;20487;-64
2022/08/24 00:57:11;;;;;;;9.70;2.90;;;18.70;99.90;;;;;;4957674;28;20047;-64
2022/08/24 00:59:47;;;;;;;6.60;2.80;;;18.80;99.90;;;;;;4958070;28;20027;-64
2022/08/24 01:02:22;;;;;;;4.30;2.50;;;18.80;99.90;;;;;;4958309;28;20491;-63
2022/08/24 01:05:04;;;;;;;7.40;2.55;;;18.90;99.90;;;;;;4963249;28;20816;-63
2022/08/24 01:07:32;;;;;;;5.18;2.15;;;19.00;99.90;;;;;;4958928;28;20027;-63
2022/08/24 01:10:02;;;;;;;4.55;2.30;;;19.00;99.90;;;;;;4962186;28;20039;-63
2022/08/24 01:12:30;;;;;;;8.23;2.30;;;19.10;99.90;;;;;;4958785;28;20074;-63
2022/08/24 01:14:58;;;;;;;6.40;2.40;;;19.20;99.90;;;;;;4956887;28;20059;-63
2022/08/24 01:20:09;;;;;;;7.97;2.20;;;19.20;99.90;;;;;;4955933;28;20116;-63
2022/08/24 01:23:14;;;;;;;5.95;2.15;;;19.20;99.90;;;;;;4959458;28;20118;-65
2022/08/24 01:25:43;;;;;;;6.22;2.08;;;19.30;99.90;;;;;;4934873;28;20031;-62
2022/08/24 01:28:16;;;;;;;8.35;2.30;;;19.30;99.90;;;;;;4952712;28;20122;-63
2022/08/24 01:30:42;;;;;;;5.72;2.30;;;19.40;99.90;;;;;;4958972;28;20550;-64
2022/08/24 01:33:10;;;;;;;7.88;3.08;;;19.40;99.90;;;;;;4957043;28;20122;-64
2022/08/24 01:35:38;;;;;;;7.22;2.17;;;19.40;99.90;;;;;;4955095;28;20395;-64
2022/08/24 01:38:10;;;;;;;5.55;2.03;;;19.40;99.90;;;;;;4958028;28;20031;-63
2022/08/24 01:40:41;;;;;;;4.05;2.10;;;19.40;99.90;;;;;;4954172;28;20039;-63
2022/08/24 01:43:07;;;;;;;6.53;2.30;;;19.40;99.90;;;;;;4954983;28;20032;-64
2022/08/24 01:45:33;;;;;;;7.00;2.00;;;19.40;99.90;;;;;;4958738;28;20285;-64
2022/08/24 01:48:01;;;;;;;4.82;2.40;;;19.40;99.90;;;;;;4951815;28;20035;-63
2022/08/24 01:50:28;;;;;;;7.20;2.10;;;19.40;99.90;;;;;;4960206;28;20031;-67
2022/08/24 01:52:56;;;;;;;5.50;2.78;;;19.40;99.90;;;;;;4955120;28;20035;-64
2022/08/24 01:55:22;;;;;;;5.05;2.60;;;19.40;99.90;;;;;;4956379;28;20106;-64
2022/08/24 01:57:48;;;;;;;6.10;2.00;;;19.30;99.90;;;;;;4949851;28;20138;-63
2022/08/24 02:00:14;;;;;;;3.65;2.22;;;19.20;99.90;;;;;;4951938;28;20173;-63
2022/08/24 02:02:41;;;;;;;7.28;2.80;;;19.10;99.90;;;;;;4965405;28;20038;-63
2022/08/24 02:05:08;;;;;;;6.13;2.95;;;19.10;99.90;;;;;;4965692;28;20037;-65
2022/08/24 02:07:34;;;;;;;4.45;2.72;;;19.10;99.90;;;;;;4958566;28;20062;-63
2022/08/24 02:10:00;;;;;;;7.90;2.78;;;19.10;99.90;;;;;;4956124;28;20058;-64
2022/08/24 02:12:26;;;;;;;8.77;2.45;;;19.10;99.90;;;;;;4955662;28;20538;-63
2022/08/24 02:14:52;;;;;;;7.25;2.67;;;19.00;99.90;;;;;;4957380;28;20054;-63
2022/08/24 02:17:17;;;;;;;10.55;2.60;;;19.00;99.90;;;;;;4952298;28;20479;-63
2022/08/24 02:19:43;;;;;;;3.20;2.20;;;18.90;99.90;;;;;;4953678;28;20399;-64
2022/08/24 02:22:09;;;;;;;7.75;3.17;;;18.90;99.90;;;;;;4955190;28;20517;-63
2022/08/24 02:24:35;;;;;;;10.88;3.13;;;19.00;99.90;;;;;;4962988;28;20106;-63
2022/08/24 02:27:01;;;;;;;6.97;3.25;;;19.00;99.90;;;;;;4957201;28;20035;-63
2022/08/24 02:29:28;;;;;;;4.93;2.10;;;19.00;99.90;;;;;;4955469;28;20043;-63
2022/08/24 02:31:54;;;;;;;5.25;2.28;;;19.00;99.90;;;;;;4952242;28;20369;-62
2022/08/24 02:34:20;;;;;;;3.83;2.20;;;19.10;99.90;;;;;;4960797;28;20062;-62
2022/08/24 02:36:46;;;;;;;6.47;2.55;;;19.10;99.90;;;;;;4964978;28;20078;-63
2022/08/24 02:39:11;;;;;;;5.10;1.65;;;19.20;99.90;;;;;;4954639;28;20510;-63
2022/08/24 02:41:37;;;;;;;3.85;1.88;;;19.20;99.90;;;;;;4956039;28;20023;-62
2022/08/24 02:44:04;;;;;;;4.20;2.00;;;19.20;99.90;;;;;;4954501;28;20506;-64
2022/08/24 02:46:30;;;;;;;4.68;2.30;;;19.20;99.90;;;;;;4952765;28;20034;-64
2022/08/24 02:49:00;;;;;;;5.57;2.55;;;19.20;99.90;;;;;;4950867;28;20047;-62
2022/08/24 02:51:29;;;;;;;5.32;2.05;;;19.20;99.90;;;;;;4954475;28;20031;-63
2022/08/24 02:53:57;;;;;;;7.50;2.35;;;19.20;99.90;;;;;;4960763;28;20450;-63
2022/08/24 02:56:22;;;;;;;6.40;1.80;;;19.20;99.90;;;;;;4970711;28;20031;-64
2022/08/24 02:58:48;;;;;;;2.22;1.50;;;19.20;99.90;;;;;;4966412;28;20078;-63
2022/08/24 03:01:16;;;;;;;5.43;1.80;;;19.20;99.90;;;;;;4970325;28;20494;-63
2022/08/24 03:03:43;;;;;;;4.38;1.60;;;19.30;99.90;;;;;;4970613;28;20026;-63
2022/08/24 03:06:09;;;;;;;3.60;1.73;;;19.20;99.90;;;;;;4970685;28;20066;-64
2022/08/24 03:08:36;;;;;;;4.22;2.00;;;19.20;99.90;;;;;;4971020;28;20486;-63
2022/08/24 03:11:03;;;;;;;4.53;2.00;;;19.20;99.90;;;;;;4980608;28;20478;-62
2022/08/24 03:13:30;;;;;;;3.97;1.90;;;19.20;99.90;;;;;;4963625;28;20093;-64
2022/08/24 03:15:57;;;;;;;5.22;1.98;;;19.20;99.90;;;;;;4975324;28;20562;-63
2022/08/24 03:18:25;;;;;;;4.47;2.22;;;19.20;99.90;;;;;;4982200;28;20029;-64
2022/08/24 03:20:55;;;;;;;3.92;2.10;;;19.20;99.90;;;;;;4977042;28;20038;-64
2022/08/24 03:23:22;;;;;;;5.25;2.22;;;19.20;99.90;;;;;;4969677;28;20042;-62
2022/08/24 03:25:48;;;;;;;4.28;2.22;;;19.20;99.90;;;;;;4975676;28;20042;-64
2022/08/24 03:28:14;;;;;;;7.95;2.30;;;19.20;99.90;;;;;;4967460;28;20859;-64
2022/08/24 03:30:42;;;;;;;3.83;2.10;;;19.20;99.90;;;;;;4976750;28;20422;-63
2022/08/24 03:33:08;;;;;;;5.20;2.17;;;19.20;99.90;;;;;;4970260;28;20054;-65
2022/08/24 03:35:33;;;;;;;5.75;2.20;;;19.20;99.90;;;;;;4977640;28;20030;-63
2022/08/24 03:37:59;;;;;;;6.55;2.42;;;19.20;99.90;;;;;;4972426;28;20035;-63
2022/08/24 03:40:25;;;;;;;7.10;1.98;;;19.20;99.90;;;;;;4976758;28;20034;-63
2022/08/24 03:42:51;;;;;;;5.82;2.42;;;19.20;99.90;;;;;;4976130;28;20030;-63
2022/08/24 03:45:17;;;;;;;4.00;2.00;;;19.30;99.90;;;;;;4977754;28;20030;-63
2022/08/24 03:47:44;;;;;;;5.18;2.75;;;19.30;99.90;;;;;;4981132;28;20023;-63
2022/08/24 03:50:10;;;;;;;8.30;2.15;;;19.20;99.90;;;;;;4979639;28;20050;-63
2022/08/24 03:52:36;;;;;;;6.38;1.95;;;19.30;99.90;;;;;;4970565;28;20122;-63
2022/08/24 03:55:04;;;;;;;4.57;1.70;;;19.30;99.90;;;;;;4977133;28;20125;-63
2022/08/24 03:57:31;;;;;;;5.88;2.28;;;19.30;99.90;;;;;;4978926;28;20117;-57
2022/08/24 03:59:56;;;;;;;9.95;2.10;;;19.30;99.90;;;;;;4971928;28;20043;-62
2022/08/24 04:02:22;;;;;;;4.53;2.33;;;19.30;99.90;;;;;;4970723;28;20023;-62
2022/08/24 04:04:48;;;;;;;6.43;2.50;;;19.30;99.90;;;;;;4981204;28;20083;-64
2022/08/24 04:07:13;;;;;;;8.73;2.67;;;19.30;99.90;;;;;;4979802;28;20589;-64
2022/08/24 04:09:39;;;;;;;6.63;2.00;;;19.20;99.90;;;;;;4980222;28;20042;-64
2022/08/24 04:12:05;;;;;;;4.82;2.63;;;19.20;99.90;;;;;;4976518;28;20030;-64
2022/08/24 04:14:31;;;;;;;5.10;2.17;;;19.20;99.90;;;;;;4980612;28;20037;-64
2022/08/24 04:16:56;;;;;;;3.75;2.05;;;19.20;99.90;;;;;;4979286;28;20474;-63
2022/08/24 04:19:22;;;;;;;8.75;2.35;;;19.20;99.90;;;;;;4978822;28;20061;-63
2022/08/24 04:21:48;;;;;;;5.85;2.35;;;19.20;99.90;;;;;;4966875;28;20560;-63
2022/08/24 04:24:13;;;;;;;8.82;2.80;;;19.20;99.90;;;;;;4964785;28;20538;-63
2022/08/24 04:26:40;;;;;;;6.90;2.10;;;19.30;99.90;;;;;;4972464;28;20031;-63
2022/08/24 04:29:08;;;;;;;3.53;2.03;;;19.30;99.90;;;;;;4973034;28;20402;-63
2022/08/24 04:31:39;;;;;;;3.88;2.70;;;19.30;99.90;;;;;;4979530;28;20581;-63
2022/08/24 04:34:06;;;;;;;6.97;2.50;;;19.30;99.90;;;;;;4980200;28;20046;-63
2022/08/24 04:36:32;;;;;;;3.42;2.20;;;19.30;99.90;;;;;;4971386;28;20069;-63
2022/08/24 04:38:59;;;;;;;5.97;2.30;;;19.30;99.90;;;;;;4979877;28;20042;-62
2022/08/24 04:41:25;;;;;;;5.28;2.55;;;19.20;99.90;;;;;;4977492;28;20480;-63
2022/08/24 04:43:52;;;;;;;5.20;2.50;;;19.20;99.90;;;;;;4966766;28;20042;-63
2022/08/24 04:46:19;;;;;;;5.30;2.58;;;19.20;99.90;;;;;;4973568;28;20031;-63
2022/08/24 04:48:47;;;;;;;7.40;2.60;;;19.20;99.90;;;;;;4978542;28;20035;-63
2022/08/24 04:51:16;;;;;;;6.95;3.20;;;19.30;99.90;;;;;;4971514;28;20031;-63
2022/08/24 04:53:43;;;;;;;8.57;3.20;;;19.30;99.90;;;;;;4977562;28;20124;-63
2022/08/24 04:56:16;;;;;;;5.32;2.90;;;19.30;99.90;;;;;;4969987;28;20409;-63
2022/08/24 04:58:42;;;;;;;9.80;4.60;;;19.30;99.90;;;;;;4969147;28;20031;-63
2022/08/24 05:01:19;;;;;;;8.77;3.97;;;19.40;99.90;;;;;;4967817;28;20169;-63
2022/08/24 05:03:49;;;;;;;7.63;4.03;;;19.30;99.90;;;;;;4977548;28;20028;-63
2022/08/24 05:06:20;;;;;;;13.20;6.20;;;19.30;99.90;;;;;;4974498;28;20145;-62
2022/08/24 05:08:47;;;;;;;16.17;5.90;;;19.30;99.90;;;;;;4973117;28;20039;-63
2022/08/24 05:11:16;;;;;;;14.60;5.22;;;19.30;99.90;;;;;;4973520;28;20383;-62
2022/08/24 05:13:42;;;;;;;11.48;4.63;;;19.20;99.90;;;;;;4978070;28;20158;-63
2022/08/24 05:16:11;;;;;;;8.73;5.75;;;19.20;99.90;;;;;;4975422;28;20027;-63
2022/08/24 05:18:37;;;;;;;11.30;5.72;;;19.20;99.90;;;;;;4969194;28;20046;-63
2022/08/24 05:21:07;;;;;;;13.20;5.03;;;19.30;99.90;;;;;;4978001;28;20359;-63
2022/08/24 05:23:34;;;;;;;11.25;4.68;;;19.30;99.90;;;;;;4974126;28;20546;-64
2022/08/24 05:26:09;;;;;;;9.50;4.93;;;19.30;99.90;;;;;;4969012;28;20097;-62
2022/08/24 05:28:35;;;;;;;12.82;6.20;;;19.30;99.90;;;;;;4967065;28;20043;-64
2022/08/24 05:31:07;;;;;;;8.95;4.25;;;19.40;99.90;;;;;;4971421;28;20486;-64
2022/08/24 05:33:33;;;;;;;17.30;5.43;;;19.30;99.90;;;;;;4973981;28;20499;-64
2022/08/24 05:35:59;;;;;;;11.88;5.60;;;19.40;99.90;;;;;;4977908;28;20037;-64
2022/08/24 05:38:24;;;;;;;15.52;4.90;;;19.40;99.90;;;;;;4974681;28;20483;-64
2022/08/24 05:40:50;;;;;;;7.10;4.60;;;19.50;99.90;;;;;;4974516;28;20034;-64
2022/08/24 05:43:16;;;;;;;9.82;4.43;;;19.40;99.90;;;;;;4976012;28;20026;-64
2022/08/24 05:45:43;;;;;;;11.55;4.93;;;19.50;99.90;;;;;;4984448;28;20050;-64
2022/08/24 05:48:08;;;;;;;11.88;4.40;;;19.50;99.90;;;;;;4976233;28;20038;-64
2022/08/24 05:50:34;;;;;;;9.98;3.75;;;19.60;99.90;;;;;;4986566;28;20456;-64
2022/08/24 05:52:59;;;;;;;9.70;4.15;;;19.60;99.90;;;;;;4970278;28;20042;-64
2022/08/24 05:55:25;;;;;;;13.73;3.72;;;19.60;99.90;;;;;;4971591;28;20415;-65
2022/08/24 05:57:51;;;;;;;9.82;4.00;;;19.70;99.90;;;;;;4969146;28;20068;-64
2022/08/24 06:00:17;;;;;;;7.47;4.50;;;19.70;99.90;;;;;;4974667;28;20483;-64
2022/08/24 06:02:43;;;;;;;10.18;4.85;;;19.70;99.90;;;;;;4974307;28;20037;-63
2022/08/24 06:05:09;;;;;;;12.77;4.40;;;19.80;99.90;;;;;;4978262;28;20425;-63
2022/08/24 06:07:34;;;;;;;7.70;3.85;;;19.80;99.90;;;;;;4978320;28;20031;-64
2022/08/24 06:10:00;;;;;;;8.52;4.32;;;19.90;99.90;;;;;;4972276;28;20046;-64
2022/08/24 06:12:26;;;;;;;7.45;4.30;;;19.90;99.90;;;;;;4980084;28;20040;-64
2022/08/24 06:14:52;;;;;;;9.95;4.43;;;20.00;99.90;;;;;;4975855;28;20027;-64
2022/08/24 06:17:17;;;;;;;10.73;3.80;;;20.10;99.90;;;;;;4972931;28;20023;-64
2022/08/24 06:19:43;;;;;;;9.65;3.15;;;20.10;99.90;;;;;;4973401;28;20037;-65
2022/08/24 06:22:09;;;;;;;11.35;4.80;;;20.20;99.90;;;;;;4974230;28;20023;-64
2022/08/24 06:27:21;;;;;;;9.63;3.35;;;20.30;99.90;;;;;;4972663;28;20037;-63
2022/08/24 06:29:53;;;;;;;7.35;3.00;;;20.30;99.90;;;;;;4966233;28;20566;-64
2022/08/24 06:32:19;;;;;;;9.70;3.67;;;20.30;99.90;;;;;;4974640;28;20030;-63
2022/08/24 06:34:45;;;;;;;8.13;4.13;;;20.40;99.90;;;;;;4973484;28;20130;-63
2022/08/24 06:37:11;;;;;;;12.20;3.65;;;20.50;99.90;;;;;;4967242;28;20038;-63
2022/08/24 06:39:38;;;;;;;7.70;3.35;;;20.50;99.90;;;;;;4978744;28;20046;-64
2022/08/24 06:42:04;;;;;;;8.32;3.33;;;20.60;99.90;;;;;;4970531;28;20442;-64
2022/08/24 06:44:31;;;;;;;11.68;3.65;;;20.70;99.90;;;;;;4970736;28;20126;-64
2022/08/24 06:46:56;;;;;;;6.72;3.60;;;20.80;99.90;;;;;;4970751;28;20055;-64
2022/08/24 06:49:23;;;;;;;7.97;3.60;;;20.90;99.90;;;;;;4967910;28;20062;-64
2022/08/24 06:51:49;;;;;;;7.22;4.00;;;21.10;99.90;;;;;;4972000;28;20019;-64
2022/08/24 06:54:16;;;;;;;9.27;4.28;;;21.10;99.90;;;;;;4967672;28;20034;-64
2022/08/24 06:56:42;;;;;;;10.98;3.88;;;21.20;99.90;;;;;;4972613;28;20089;-64
2022/08/24 06:59:07;;;;;;;12.02;3.40;;;21.30;99.90;;;;;;4976197;28;20038;-63
2022/08/24 07:01:33;;;;;;;8.07;3.67;;;21.30;99.90;;;;;;4972708;28;20030;-64
2022/08/24 07:03:59;;;;;;;7.00;3.05;;;21.30;99.90;;;;;;4970885;28;20030;-65
2022/08/24 07:06:25;;;;;;;7.82;3.47;;;21.30;99.90;;;;;;4975286;28;20023;-64
2022/08/24 07:08:52;;;;;;;5.60;3.00;;;21.30;99.90;;;;;;4983448;28;20666;-67
2022/08/24 07:11:18;;;;;;;6.53;2.58;;;21.30;99.90;;;;;;4970767;28;20029;-66
2022/08/24 07:13:46;;;;;;;7.25;2.25;;;21.40;99.90;;;;;;4975567;28;20026;-65
2022/08/24 07:16:13;;;;;;;7.82;2.80;;;21.50;99.90;;;;;;4967895;28;20114;-65
2022/08/24 07:18:39;;;;;;;4.82;2.33;;;21.50;99.90;;;;;;4971325;28;20077;-64
2022/08/24 07:21:05;;;;;;;6.32;2.50;;;21.40;99.90;;;;;;4962956;28;20114;-65
2022/08/24 07:23:31;;;;;;;10.88;3.25;;;21.50;99.90;;;;;;4973650;28;20468;-65
2022/08/24 07:26:05;;;;;;;8.95;2.65;;;21.50;99.90;;;;;;4972818;28;20031;-65
2022/08/24 07:28:35;;;;;;;3.80;2.00;;;21.40;99.90;;;;;;4974189;28;20080;-65
2022/08/24 07:31:01;;;;;;;7.75;2.75;;;21.50;99.90;;;;;;4970650;28;20043;-65
2022/08/24 07:33:26;;;;;;;9.18;3.05;;;21.40;99.90;;;;;;4980617;28;20272;-65
2022/08/24 07:35:52;;;;;;;5.50;2.90;;;21.50;99.90;;;;;;4970530;28;20034;-65
2022/08/24 07:38:18;;;;;;;5.65;2.17;;;21.60;99.90;;;;;;4962882;28;20034;-66
2022/08/24 07:40:46;;;;;;;7.13;2.35;;;21.60;99.90;;;;;;4960602;28;20042;-65
2022/08/24 07:43:12;;;;;;;7.13;2.80;;;21.60;99.90;;;;;;4954316;28;20396;-66
2022/08/24 07:45:40;;;;;;;5.35;2.10;;;21.80;99.90;;;;;;4970946;28;20030;-64
2022/08/24 07:48:06;;;;;;;3.70;1.80;;;21.80;99.90;;;;;;4971718;28;20041;-65
2022/08/24 07:50:32;;;;;;;4.75;2.13;;;21.80;99.90;;;;;;4972999;28;20031;-65
2022/08/24 07:52:58;;;;;;;4.28;1.52;;;21.80;99.90;;;;;;4970062;28;20027;-66
2022/08/24 07:55:24;;;;;;;5.97;1.85;;;22.00;99.90;;;;;;4978560;28;20077;-66
2022/08/24 07:57:50;;;;;;;7.78;1.63;;;22.20;99.90;;;;;;4972559;28;20037;-66
2022/08/24 08:00:18;;;;;;;5.50;1.88;;;22.20;99.90;;;;;;4972667;28;20038;-65
2022/08/24 08:02:45;;;;;;;6.47;2.40;;;22.10;99.90;;;;;;4971018;28;20478;-64
2022/08/24 08:05:13;;;;;;;3.22;1.40;;;22.10;99.90;;;;;;4979729;28;20042;-64
2022/08/24 08:07:39;;;;;;;6.82;1.38;;;22.20;99.90;;;;;;4975759;28;20027;-64
2022/08/24 08:10:05;;;;;;;9.73;2.55;;;22.20;99.90;;;;;;4972477;28;20495;-65
2022/08/24 08:12:31;;;;;;;3.70;1.35;;;22.30;99.90;;;;;;4964833;28;20038;-65
2022/08/24 08:14:57;;;;;;;5.13;1.20;;;22.40;99.90;;;;;;4966815;28;20035;-65
2022/08/24 08:17:22;;;;;;;4.55;0.88;;;22.50;99.90;;;;;;4970909;28;20089;-66
2022/08/24 08:19:49;;;;;;;3.25;1.33;;;22.60;99.90;;;;;;4970312;28;20027;-65
2022/08/24 08:24:59;;;;;;;4.78;0.82;;;22.90;99.90;;;;;;4969235;28;20340;-64
2022/08/24 08:27:24;;;;;;;3.55;1.00;;;22.80;99.90;;;;;;4970537;28;20022;-66
2022/08/24 08:29:50;;;;;;;2.97;0.73;;;23.00;99.90;;;;;;4970542;28;20549;-67
2022/08/24 08:32:18;;;;;;;4.75;1.00;;;23.30;99.90;;;;;;4968293;28;20034;-65
2022/08/24 08:34:45;;;;;;;3.58;0.80;;;23.30;99.90;;;;;;4975563;28;20058;-65
2022/08/24 08:37:11;;;;;;;3.40;1.10;;;23.30;99.90;;;;;;4968450;28;20114;-65
2022/08/24 08:39:39;;;;;;;4.30;0.93;;;23.50;99.90;;;;;;4970469;28;20023;-66
2022/08/24 08:42:50;;;;;;;5.53;0.82;;;23.50;99.90;;;;;;4967700;28;21756;-65
2022/08/24 08:45:44;;;;;;;4.45;1.52;;;23.60;99.90;;;;;;4967627;28;20050;-67
2022/08/24 08:48:28;;;;;;;2.25;0.70;;;23.60;99.90;;;;;;4961242;28;20050;-66
2022/08/24 08:51:18;;;;;;;3.75;0.77;;;23.60;99.90;;;;;;4969766;28;20037;-66
2022/08/24 08:53:55;;;;;;;3.90;1.05;;;23.70;99.90;;;;;;4969464;28;20482;-66
2022/08/24 08:56:34;;;;;;;2.80;1.02;;;23.60;99.90;;;;;;4970641;28;20070;-66
2022/08/24 08:59:15;;;;;;;3.50;0.90;;;23.80;99.90;;;;;;4961846;28;20039;-65
2022/08/24 09:02:14;;;;;;;9.70;2.00;;;23.90;99.90;;;;;;4967624;28;20027;-66
2022/08/24 09:05:16;;;;;;;1.27;0.40;;;24.00;99.90;;;;;;4956732;28;20039;-65
2022/08/24 09:08:00;;;;;;;5.75;0.77;;;24.10;99.90;;;;;;4964326;28;20101;-65
2022/08/24 09:11:02;;;;;;;2.20;0.60;;;24.40;99.90;;;;;;4962305;28;20099;-65
2022/08/24 09:13:41;;;;;;;3.30;0.50;;;24.30;99.90;;;;;;4969958;28;20018;-65
2022/08/24 09:16:23;;;;;;;2.63;0.55;;;24.40;99.90;;;;;;4964684;28;21336;-67
2022/08/24 09:19:12;;;;;;;3.50;0.60;;;24.30;99.90;;;;;;4958296;28;20023;-66
2022/08/24 09:21:56;;;;;;;2.25;0.60;;;24.30;99.90;;;;;;4962935;28;20035;-66
2022/08/24 09:24:41;;;;;;;3.53;0.40;;;24.40;99.90;;;;;;4963224;28;20440;-66
2022/08/24 09:27:31;;;;;;;0.63;0.32;;;24.40;99.90;;;;;;4961751;28;20482;-66
2022/08/24 09:30:13;;;;;;;5.07;0.47;;;24.50;99.90;;;;;;4969343;28;20050;-66
2022/08/24 09:32:50;;;;;;;1.40;0.73;;;24.40;99.90;;;;;;4970587;28;20035;-66
2022/08/24 09:35:28;;;;;;;1.85;0.50;;;24.40;99.90;;;;;;4968964;28;20390;-65
2022/08/24 09:38:00;;;;;;;1.67;0.32;;;24.30;99.90;;;;;;4966439;28;20079;-64
2022/08/24 09:40:44;;;;;;;1.73;0.30;;;24.30;99.90;;;;;;4965918;28;20118;-66
2022/08/24 09:43:23;;;;;;;1.45;0.60;;;24.00;99.90;;;;;;4967743;28;20031;-66
2022/08/24 09:46:06;;;;;;;1.50;0.30;;;24.00;99.90;;;;;;4975018;28;20097;-65
2022/08/24 09:49:17;;;;;;;2.03;0.47;;;24.10;99.90;;;;;;4974462;28;21341;-67
2022/08/24 09:52:19;;;;;;;2.70;0.40;;;24.50;99.90;;;;;;4951127;28;20035;-66
2022/08/24 09:54:59;;;;;;;4.00;0.70;;;24.50;99.90;;;;;;4983433;28;20034;-67
2022/08/24 09:57:57;;;;;;;3.65;0.90;;;24.60;99.90;;;;;;4976002;28;20039;-67
2022/08/24 10:00:44;;;;;;;1.42;0.32;;;24.50;99.90;;;;;;4973635;28;20371;-67
2022/08/24 10:03:40;;;;;;;1.35;0.30;;;24.30;99.90;;;;;;4971567;28;20041;-66
2022/08/24 10:06:24;;;;;;;1.55;0.32;;;24.30;99.90;;;;;;4976748;28;20035;-66
2022/08/24 10:09:17;;;;;;;3.28;0.57;;;24.10;99.90;;;;;;4974216;28;20057;-67
2022/08/24 10:12:01;;;;;;;2.38;1.00;;;24.10;99.90;;;;;;4979924;28;20463;-66
2022/08/24 10:14:48;;;;;;;1.58;0.77;;;24.50;99.90;;;;;;4983632;28;20025;-66
2022/08/24 10:17:38;;;;;;;4.63;1.23;;;25.00;99.90;;;;;;4971833;28;20088;-65
2022/08/24 10:20:22;;;;;;;3.13;1.30;;;25.60;99.90;;;;;;4973445;28;20054;-69
2022/08/24 10:23:00;;;;;;;4.50;1.90;;;25.80;99.90;;;;;;4971189;28;20569;-67
2022/08/24 10:25:41;;;;;;;2.10;1.45;;;26.10;99.90;;;;;;4968773;28;20118;-66
2022/08/24 10:28:38;;;;;;;2.97;1.52;;;26.20;99.90;;;;;;4967419;28;20118;-67
2022/08/24 10:31:10;;;;;;;3.75;1.52;;;26.30;99.90;;;;;;4965347;28;20031;-66
2022/08/24 10:33:35;;;;;;;3.22;1.30;;;26.40;99.90;;;;;;4965940;28;20208;-65
2022/08/24 10:36:38;;;;;;;3.35;1.70;;;26.00;99.90;;;;;;4969769;28;20125;-67
2022/08/24 10:42:08;;;;;;;2.30;1.23;;;25.60;99.90;;;;;;4971936;28;20046;-67
2022/08/24 10:44:40;;;;;;;4.00;1.88;;;25.80;99.90;;;;;;4961763;28;20085;-67
2022/08/24 10:47:11;;;;;;;;;;;26.30;99.90;;;;;;4971163;28;20027;-67
2022/08/24 10:49:55;;;;;;;5.00;1.27;;;26.90;99.90;;;;;;4972235;28;19921;-67
2022/08/24 10:53:04;;;;;;;3.05;1.20;;;27.20;99.90;;;;;;4970004;28;20427;-67
2022/08/24 10:55:33;;;;;;;2.53;1.67;;;27.50;99.90;;;;;;4971541;28;20030;-67
2022/08/24 10:58:21;;;;;;;2.33;1.90;;;27.60;99.90;;;;;;4969140;28;20490;-67
2022/08/24 11:00:47;;;;;;;3.40;1.85;;;27.30;99.90;;;;;;4971820;28;20026;-68
2022/08/24 11:03:21;;;;;;;3.55;1.90;;;27.20;99.90;;;;;;4970231;28;20037;-68
2022/08/24 11:05:52;;;;;;;6.10;1.92;;;27.20;99.90;;;;;;4971213;28;20034;-67
2022/08/24 11:08:20;;;;;;;3.15;1.73;;;27.30;99.90;;;;;;4968870;28;20043;-68
2022/08/24 11:11:24;;;;;;;4.28;1.77;;;27.80;99.90;;;;;;4971813;28;20498;-65
2022/08/24 11:13:53;;;;;;;3.67;2.30;;;28.60;99.90;;;;;;4964401;28;20042;-67
2022/08/24 11:16:34;;;;;;;1.98;1.77;;;28.70;99.90;;;;;;4968197;28;20031;-67
2022/08/24 11:19:03;;;;;;;5.90;2.13;;;29.20;99.90;;;;;;4970447;28;20045;-66
2022/08/24 11:21:35;;;;;;;2.97;2.30;;;29.00;99.90;;;;;;4971690;28;20041;-66
2022/08/24 11:24:11;;;;;;;2.35;1.80;;;28.80;99.90;;;;;;4969950;28;20129;-67
2022/08/24 11:26:51;;;;;;;1.73;1.27;;;29.10;99.90;;;;;;4970471;28;20195;-66
2022/08/24 11:29:17;;;;;;;5.03;2.28;;;29.10;99.90;;;;;;4969743;28;20043;-66
2022/08/24 11:31:49;;;;;;;2.22;1.92;;;29.70;99.90;;;;;;4971631;28;20052;-67
2022/08/24 11:34:31;;;;;;;5.47;2.10;;;29.60;99.90;;;;;;4960779;28;20148;-67
2022/08/24 11:36:57;;;;;;;1.45;1.20;;;29.30;99.90;;;;;;4969072;28;20031;-67
2022/08/24 11:39:32;;;;;;;1.52;1.40;;;29.40;99.90;;;;;;4971706;28;20045;-66
2022/08/24 11:42:15;;;;;;;4.22;1.48;;;29.60;99.90;;;;;;4968265;28;20166;-66
2022/08/24 11:44:55;;;;;;;3.92;1.30;;;29.50;99.90;;;;;;4970291;28;20120;-66
2022/08/24 11:47:43;;;;;;;3.95;1.80;;;29.20;99.90;;;;;;4969540;28;20030;-68
2022/08/24 11:50:18;;;;;;;2.97;0.95;;;29.80;99.90;;;;;;4963225;28;20111;-68
2022/08/24 11:52:59;;;;;;;1.33;1.23;;;30.00;99.90;;;;;;4968093;28;20390;-67
2022/08/24 11:55:30;;;;;;;4.90;1.52;;;30.40;99.90;;;;;;4963078;28;20042;-67
2022/08/24 11:58:03;;;;;;;2.28;1.23;;;30.20;99.90;;;;;;4969935;28;20088;-67
2022/08/24 12:00:46;;;;;;;1.80;1.20;;;30.20;99.90;;;;;;4971534;28;20058;-67
2022/08/24 12:03:29;;;;;;;2.53;1.30;;;30.10;99.90;;;;;;4969183;28;20447;-68
2022/08/24 12:06:01;;;;;;;3.33;1.20;;;29.30;99.90;;;;;;4969993;28;20130;-67
2022/08/24 12:08:40;;;;;;;1.33;1.23;;;29.50;99.90;;;;;;4968135;28;20037;-67
2022/08/24 12:11:09;;;;;;;1.60;1.13;;;30.40;99.90;;;;;;4968563;28;20130;-67
2022/08/24 12:13:57;;;;;;;1.70;1.60;;;30.20;99.90;;;;;;4964600;28;20490;-67
2022/08/24 12:16:38;;;;;;;1.98;1.45;;;30.20;99.90;;;;;;4969224;28;20130;-67
2022/08/24 12:19:20;;;;;;;2.83;1.70;;;30.50;99.90;;;;;;4969373;28;20039;-67
2022/08/24 12:21:51;;;;;;;2.25;1.90;;;31.20;99.90;;;;;;4970864;28;20027;-67
2022/08/24 12:24:30;;;;;;;1.75;1.52;;;30.70;99.90;;;;;;4959814;28;20099;-67
2022/08/24 12:27:03;;;;;;;2.28;1.58;;;30.80;99.90;;;;;;4970271;28;20029;-68
2022/08/24 12:29:36;;;;;;;3.33;1.20;;;30.70;99.90;;;;;;4962104;28;20089;-68
2022/08/24 12:32:33;;;;;;;2.92;1.60;;;30.60;99.90;;;;;;4968668;28;20474;-66
2022/08/24 12:35:04;;;;;;;1.58;1.30;;;30.80;99.90;;;;;;4967409;28;20092;-67
2022/08/24 12:37:56;;;;;;;;;;;31.30;99.90;;;;;;4970966;28;20031;-67
2022/08/24 12:40:31;;;;;;;2.25;1.50;;;31.20;99.90;;;;;;4967929;28;20388;-67
2022/08/24 12:43:07;;;;;;;1.58;1.48;;;31.50;99.90;;;;;;4968666;28;20038;-67
2022/08/24 12:45:35;;;;;;;3.42;1.67;;;31.20;99.90;;;;;;4968600;28;20023;-67
2022/08/24 12:48:06;;;;;;;0.98;0.88;;;30.70;99.90;;;;;;4967872;28;20034;-67
2022/08/24 12:50:50;;;;;;;;;;;29.90;99.90;;;;;;4971004;28;20118;-67
2022/08/24 12:53:29;;;;;;;2.88;1.35;;;30.20;99.90;;;;;;4960712;28;19953;-67
2022/08/24 12:56:17;;;;;;;4.70;1.88;;;30.40;99.90;;;;;;4964607;28;20538;-66
2022/08/24 12:59:00;;;;;;;2.35;1.00;;;30.50;99.90;;;;;;4970045;28;20458;-66
2022/08/24 13:01:32;;;;;;;4.32;1.88;;;30.80;99.90;;;;;;4969539;28;20026;-66
2022/08/24 13:04:24;;;;;;;2.90;1.80;;;31.30;99.90;;;;;;4968817;28;20031;-68
2022/08/24 13:07:10;;;;;;;1.80;1.30;;;31.90;99.90;;;;;;4965602;28;20042;-67
2022/08/24 13:10:02;;;;;;;1.55;1.20;;;32.20;99.90;;;;;;4969252;28;20085;-66
2022/08/24 13:12:37;;;;;;;3.22;1.40;;;32.20;99.90;;;;;;4963213;28;20122;-67
2022/08/24 13:15:25;;;;;;;0.80;0.80;;;32.70;99.10;;;;;;4968432;28;20503;-68
2022/08/24 13:17:53;;;;;;;1.63;1.30;;;32.40;98.90;;;;;;4970157;28;20035;-68
2022/08/24 13:20:37;;;;;;;2.22;1.92;;;32.60;98.20;;;;;;4967353;28;20027;-68
2022/08/24 13:23:17;;;;;;;1.55;1.40;;;33.00;98.00;;;;;;4968495;28;20126;-68